Othello — LXOD — position and weather

sailwx.info

Track history (hours):
 
Tides and Currents Weather Stations Pressure Air Temp Water Temp Dewpoint Dewpoint Depression Visibility Wind Speed Wind Dir Waves Ship Positions

Othello

Last reported at 2018-Feb-23 00:59 UTC. Time now 2018-Feb-23 01:12 UTC.
Position N 51°22' E 002°39'.

Length 104 m; draft 7.4 m.

Type: Tanker. MMSI: 253279000.

Date/timePositionNaut miles runAvg speedWind from/ knotsBaromVisibWave heightAir tempDewpointWater temp
2018-Feb-23 00:59N 51°22' E 002°39'510.0
2018-Feb-23 00:30N 51°22' E 002°31'510.1
2018-Feb-22 23:59N 51°20' E 002°23'510.4
2018-Feb-22 23:30N 51°17' E 002°16'510.1
2018-Feb-22 23:00N 51°14' E 002°10'510.2
2018-Feb-22 22:30N 51°12' E 002°03'510.2
2018-Feb-22 22:00N 51°09' E 001°56'510.3
2018-Feb-22 21:30N 51°07' E 001°48'510.3
2018-Feb-22 21:00N 51°04' E 001°42'510.7
2018-Feb-22 20:30N 50°60' E 001°36'611.3
2018-Feb-22 19:58N 50°55' E 001°30'5711.7
2018-Feb-22 15:07N 50°23' E 000°17'112.4
2018-Feb-22 15:00N 50°22' E 000°15'713.1
2018-Feb-22 14:28N 50°20' E 000°04'613.5
2018-Feb-22 14:00N 50°19' W 000°05'714.0
2018-Feb-22 13:30N 50°17' W 000°16'2814.7
2018-Feb-22 11:35N 50°09' W 000°58'115.0
2018-Feb-22 11:30N 50°09' W 001°00'714.9
2018-Feb-22 11:00N 50°07' W 001°12'714.5
2018-Feb-22 10:30N 50°06' W 001°23'714.2
2018-Feb-22 10:00N 50°04' W 001°33'713.7
2018-Feb-22 09:30N 50°02' W 001°44'713.1
2018-Feb-22 09:00N 50°00' W 001°53'612.2
2018-Feb-22 08:30N 49°58' W 002°03'611.4
2018-Feb-22 08:00N 49°57' W 002°11'910.7
2018-Feb-22 07:10N 49°54' W 002°24'410.1
2018-Feb-22 06:45N 49°53' W 002°30'310.1
2018-Feb-22 06:27N 49°52' W 002°35'11810.9
2018-Feb-21 19:38N 48°56' W 005°14'213.4
2018-Feb-21 19:30N 48°55' W 005°16'713.5
2018-Feb-21 18:59N 48°52' W 005°25'713.4
2018-Feb-21 18:26N 48°48' W 005°35'613.1
2018-Feb-21 17:57N 48°42' W 005°40'613.3
2018-Feb-21 17:29N 48°37' W 005°45'613.2
2018-Feb-21 17:00N 48°31' W 005°49'1412.8
2018-Feb-21 15:54N 48°19' W 005°60'812.5
2018-Feb-21 15:18N 48°12' W 006°05'5311.3
2018-Feb-21 10:36N 47°25' W 006°42'611.5
2018-Feb-21 10:03N 47°20' W 006°46'48011.3
2018-Feb-19 15:41N 39°41' W 009°58'211.6
2018-Feb-19 15:30N 39°38' W 009°58'1211.9
2018-Feb-19 14:30N 39°26' W 009°59'612.1
2018-Feb-19 14:00N 39°20' W 009°59'612.6
2018-Feb-19 13:31N 39°14' W 010°00'612.5
2018-Feb-19 13:01N 39°08' W 010°01'612.4
2018-Feb-19 12:30N 39°02' W 010°01'612.4
2018-Feb-19 12:01N 38°56' W 010°02'611.8
2018-Feb-19 11:30N 38°50' W 009°58'612.6
2018-Feb-19 11:00N 38°44' W 009°58'612.6
2018-Feb-19 10:30N 38°38' W 009°57'612.5
2018-Feb-19 10:01N 38°32' W 009°55'612.6
2018-Feb-19 09:30N 38°26' W 009°52'612.3
2018-Feb-19 09:01N 38°20' W 009°51'612.7
2018-Feb-19 08:30N 38°14' W 009°49'612.6
2018-Feb-19 08:01N 38°08' W 009°47'612.7
2018-Feb-19 07:30N 38°01' W 009°45'612.6
2018-Feb-19 07:01N 37°55' W 009°43'612.7
2018-Feb-19 06:31N 37°49' W 009°42'613.0
2018-Feb-19 06:00N 37°43' W 009°40'612.9
2018-Feb-19 05:31N 37°36' W 009°38'612.9
2018-Feb-19 05:00N 37°30' W 009°35'612.8
2018-Feb-19 04:30N 37°24' W 009°33'612.8
2018-Feb-19 04:00N 37°18' W 009°32'713.0
2018-Feb-19 03:26N 37°11' W 009°30'813.1
2018-Feb-19 02:51N 37°03' W 009°27'2911.9
2018-Feb-19 00:25N 36°40' W 009°06'612.6
2018-Feb-18 23:59N 36°38' W 008°60'712.7
2018-Feb-18 23:23N 36°39' W 008°50'512.5
2018-Feb-18 23:00N 36°39' W 008°44'813.0
2018-Feb-18 22:24N 36°40' W 008°34'  
2018-Feb-16 09:49N 37°13' W 001°04'513.8
2018-Feb-16 09:29N 37°16' W 001°00'713.8
2018-Feb-16 08:57N 37°21' W 000°53'613.7
2018-Feb-16 08:30N 37°25' W 000°48'813.5
2018-Feb-16 07:57N 37°30' W 000°40'613.2
2018-Feb-16 07:30N 37°34' W 000°35'612.7
2018-Feb-16 07:00N 37°38' W 000°30'712.8
2018-Feb-16 06:29N 37°44' W 000°25'612.8
2018-Feb-16 06:00N 37°49' W 000°21'912.9
2018-Feb-16 05:21N 37°56' W 000°15'613.2
2018-Feb-16 04:53N 38°01' W 000°11'513.5
2018-Feb-16 04:29N 38°06' W 000°07'19513.6
2018-Feb-15 14:11N 40°54' E 001°59'314.3
2018-Feb-15 14:00N 40°56' E 002°01'714.2
2018-Feb-15 13:30N 41°02' E 002°06'713.4
2018-Feb-15 13:01N 41°09' E 002°06'713.3
2018-Feb-15 12:31N 41°15' E 002°10'611.5
2018-Feb-15 12:01N 41°21' E 002°10'1 0.7
2018-Feb-15 10:49N 41°20' E 002°09'0 0.0
2018-Feb-15 10:28N 41°20' E 002°09'0 0.0
2018-Feb-15 09:40N 41°20' E 002°09'0 0.0
2018-Feb-15 09:22N 41°20' E 002°09'0 0.0
2018-Feb-15 08:52N 41°20' E 002°09'0 0.0
2018-Feb-15 08:19N 41°20' E 002°09'0 0.0
2018-Feb-15 07:37N 41°20' E 002°09'0 0.0
2018-Feb-15 06:04N 41°20' E 002°09'0 0.0
2018-Feb-15 05:46N 41°20' E 002°09'0 0.0
2018-Feb-15 03:46N 41°20' E 002°09'0 0.0
2018-Feb-15 03:22N 41°20' E 002°09'0 0.0
2018-Feb-15 02:52N 41°20' E 002°09'0 0.0
2018-Feb-15 02:28N 41°20' E 002°09'0 0.0
2018-Feb-15 01:46N 41°20' E 002°09'0 0.0
2018-Feb-15 01:10N 41°20' E 002°09'0 0.0
2018-Feb-14 23:28N 41°20' E 002°09'0 0.0
2018-Feb-14 22:40N 41°20' E 002°09'0 0.0
2018-Feb-14 22:22N 41°20' E 002°09'0 0.0
2018-Feb-14 21:58N 41°20' E 002°09'0 0.0
2018-Feb-14 18:40N 41°20' E 002°09'0 0.0
2018-Feb-14 18:28N 41°20' E 002°09'0 0.0
2018-Feb-14 17:19N 41°20' E 002°09'0 0.0
2018-Feb-14 16:55N 41°20' E 002°09'0 0.0
2018-Feb-14 16:07N 41°20' E 002°09'0 0.0
2018-Feb-14 15:55N 41°20' E 002°09'0 0.0
2018-Feb-14 14:31N 41°20' E 002°09'0 0.0
2018-Feb-14 14:13N 41°20' E 002°09'0 0.0
2018-Feb-14 13:55N 41°20' E 002°09'0 0.0
2018-Feb-14 13:28N 41°20' E 002°09'0 0.0
2018-Feb-14 11:31N 41°20' E 002°09'0 0.0
2018-Feb-14 11:19N 41°20' E 002°09'0 0.0
2018-Feb-14 10:43N 41°20' E 002°09'0 0.0
2018-Feb-14 10:25N 41°20' E 002°09'0 0.0
2018-Feb-14 09:07N 41°20' E 002°09'0 0.0
2018-Feb-14 09:00N 41°20' E 002°09'0 0.0
2018-Feb-14 08:30N 41°20' E 002°09'0 0.0
2018-Feb-14 08:00N 41°20' E 002°09'1 1.9
2018-Feb-14 07:30N 41°19' E 002°10'510.6
2018-Feb-14 07:00N 41°14' E 002°11'713.3
2018-Feb-14 06:30N 41°08' E 002°07'713.1
2018-Feb-14 05:59N 41°02' E 002°03'22712.5
2018-Feb-13 11:55N 37°45' W 000°21'513.5
2018-Feb-13 11:30N 37°40' W 000°25'713.6
2018-Feb-13 11:00N 37°34' W 000°30'913.0
2018-Feb-13 10:17N 37°29' W 000°40'313.0
2018-Feb-13 10:01N 37°26' W 000°43'612.8
2018-Feb-13 09:31N 37°22' W 000°48'712.9
2018-Feb-13 08:57N 37°17' W 000°55'  
Track history (hours):
 
Tides and Currents Weather Stations Pressure Air Temp Water Temp Dewpoint Dewpoint Depression Visibility Wind Speed Wind Dir Waves Ship Positions

Othello

Last reported at 2018-Feb-23 00:59 UTC. Time now 2018-Feb-23 01:12 UTC.
Position N 51°22' E 002°39'.

Length 104 m; draft 7.4 m.

Type: Tanker. MMSI: 253279000.

Date/timePositionNaut miles runAvg speedWind from/ knotsBaromVisibWave heightAir tempDewpointWater temp
2018-Feb-23 00:59N 51°22' E 002°39'510.0
2018-Feb-23 00:30N 51°22' E 002°31'510.1
2018-Feb-22 23:59N 51°20' E 002°23'510.4
2018-Feb-22 23:30N 51°17' E 002°16'510.1
2018-Feb-22 23:00N 51°14' E 002°10'510.2
2018-Feb-22 22:30N 51°12' E 002°03'510.2
2018-Feb-22 22:00N 51°09' E 001°56'510.3
2018-Feb-22 21:30N 51°07' E 001°48'510.3
2018-Feb-22 21:00N 51°04' E 001°42'510.7
2018-Feb-22 20:30N 50°60' E 001°36'611.3
2018-Feb-22 19:58N 50°55' E 001°30'5711.7
2018-Feb-22 15:07N 50°23' E 000°17'112.4
2018-Feb-22 15:00N 50°22' E 000°15'713.1
2018-Feb-22 14:28N 50°20' E 000°04'613.5
2018-Feb-22 14:00N 50°19' W 000°05'714.0
2018-Feb-22 13:30N 50°17' W 000°16'2814.7
2018-Feb-22 11:35N 50°09' W 000°58'115.0
2018-Feb-22 11:30N 50°09' W 001°00'714.9
2018-Feb-22 11:00N 50°07' W 001°12'714.5
2018-Feb-22 10:30N 50°06' W 001°23'714.2
2018-Feb-22 10:00N 50°04' W 001°33'713.7
2018-Feb-22 09:30N 50°02' W 001°44'713.1
2018-Feb-22 09:00N 50°00' W 001°53'612.2
2018-Feb-22 08:30N 49°58' W 002°03'611.4
2018-Feb-22 08:00N 49°57' W 002°11'910.7
2018-Feb-22 07:10N 49°54' W 002°24'410.1
2018-Feb-22 06:45N 49°53' W 002°30'310.1
2018-Feb-22 06:27N 49°52' W 002°35'11810.9
2018-Feb-21 19:38N 48°56' W 005°14'213.4
2018-Feb-21 19:30N 48°55' W 005°16'713.5
2018-Feb-21 18:59N 48°52' W 005°25'713.4
2018-Feb-21 18:26N 48°48' W 005°35'613.1
2018-Feb-21 17:57N 48°42' W 005°40'613.3
2018-Feb-21 17:29N 48°37' W 005°45'613.2
2018-Feb-21 17:00N 48°31' W 005°49'1412.8
2018-Feb-21 15:54N 48°19' W 005°60'812.5
2018-Feb-21 15:18N 48°12' W 006°05'5311.3
2018-Feb-21 10:36N 47°25' W 006°42'611.5
2018-Feb-21 10:03N 47°20' W 006°46'48011.3
2018-Feb-19 15:41N 39°41' W 009°58'211.6
2018-Feb-19 15:30N 39°38' W 009°58'1211.9
2018-Feb-19 14:30N 39°26' W 009°59'612.1
2018-Feb-19 14:00N 39°20' W 009°59'612.6
2018-Feb-19 13:31N 39°14' W 010°00'612.5
2018-Feb-19 13:01N 39°08' W 010°01'612.4
2018-Feb-19 12:30N 39°02' W 010°01'612.4
2018-Feb-19 12:01N 38°56' W 010°02'611.8
2018-Feb-19 11:30N 38°50' W 009°58'612.6
2018-Feb-19 11:00N 38°44' W 009°58'612.6
2018-Feb-19 10:30N 38°38' W 009°57'612.5
2018-Feb-19 10:01N 38°32' W 009°55'612.6
2018-Feb-19 09:30N 38°26' W 009°52'612.3
2018-Feb-19 09:01N 38°20' W 009°51'612.7
2018-Feb-19 08:30N 38°14' W 009°49'612.6
2018-Feb-19 08:01N 38°08' W 009°47'612.7
2018-Feb-19 07:30N 38°01' W 009°45'612.6
2018-Feb-19 07:01N 37°55' W 009°43'612.7
2018-Feb-19 06:31N 37°49' W 009°42'613.0
2018-Feb-19 06:00N 37°43' W 009°40'612.9
2018-Feb-19 05:31N 37°36' W 009°38'612.9
2018-Feb-19 05:00N 37°30' W 009°35'612.8
2018-Feb-19 04:30N 37°24' W 009°33'612.8
2018-Feb-19 04:00N 37°18' W 009°32'713.0
2018-Feb-19 03:26N 37°11' W 009°30'813.1
2018-Feb-19 02:51N 37°03' W 009°27'2911.9
2018-Feb-19 00:25N 36°40' W 009°06'612.6
2018-Feb-18 23:59N 36°38' W 008°60'712.7
2018-Feb-18 23:23N 36°39' W 008°50'512.5
2018-Feb-18 23:00N 36°39' W 008°44'813.0
2018-Feb-18 22:24N 36°40' W 008°34'  
2018-Feb-16 09:49N 37°13' W 001°04'513.8
2018-Feb-16 09:29N 37°16' W 001°00'713.8
2018-Feb-16 08:57N 37°21' W 000°53'613.7
2018-Feb-16 08:30N 37°25' W 000°48'813.5
2018-Feb-16 07:57N 37°30' W 000°40'613.2
2018-Feb-16 07:30N 37°34' W 000°35'612.7
2018-Feb-16 07:00N 37°38' W 000°30'712.8
2018-Feb-16 06:29N 37°44' W 000°25'612.8
2018-Feb-16 06:00N 37°49' W 000°21'912.9
2018-Feb-16 05:21N 37°56' W 000°15'613.2
2018-Feb-16 04:53N 38°01' W 000°11'513.5
2018-Feb-16 04:29N 38°06' W 000°07'19513.6
2018-Feb-15 14:11N 40°54' E 001°59'314.3
2018-Feb-15 14:00N 40°56' E 002°01'714.2
2018-Feb-15 13:30N 41°02' E 002°06'713.4
2018-Feb-15 13:01N 41°09' E 002°06'713.3
2018-Feb-15 12:31N 41°15' E 002°10'611.5
2018-Feb-15 12:01N 41°21' E 002°10'1 0.7
2018-Feb-15 10:49N 41°20' E 002°09'0 0.0
2018-Feb-15 10:28N 41°20' E 002°09'0 0.0
2018-Feb-15 09:40N 41°20' E 002°09'0 0.0
2018-Feb-15 09:22N 41°20' E 002°09'0 0.0
2018-Feb-15 08:52N 41°20' E 002°09'0 0.0
2018-Feb-15 08:19N 41°20' E 002°09'0 0.0
2018-Feb-15 07:37N 41°20' E 002°09'0 0.0
2018-Feb-15 06:04N 41°20' E 002°09'0 0.0
2018-Feb-15 05:46N 41°20' E 002°09'0 0.0
2018-Feb-15 03:46N 41°20' E 002°09'0 0.0
2018-Feb-15 03:22N 41°20' E 002°09'0 0.0
2018-Feb-15 02:52N 41°20' E 002°09'0 0.0
2018-Feb-15 02:28N 41°20' E 002°09'0 0.0
2018-Feb-15 01:46N 41°20' E 002°09'0 0.0
2018-Feb-15 01:10N 41°20' E 002°09'0 0.0
2018-Feb-14 23:28N 41°20' E 002°09'0 0.0
2018-Feb-14 22:40N 41°20' E 002°09'0 0.0
2018-Feb-14 22:22N 41°20' E 002°09'0 0.0
2018-Feb-14 21:58N 41°20' E 002°09'0 0.0
2018-Feb-14 18:40N 41°20' E 002°09'0 0.0
2018-Feb-14 18:28N 41°20' E 002°09'0 0.0
2018-Feb-14 17:19N 41°20' E 002°09'0 0.0
2018-Feb-14 16:55N 41°20' E 002°09'0 0.0
2018-Feb-14 16:07N 41°20' E 002°09'0 0.0
2018-Feb-14 15:55N 41°20' E 002°09'0 0.0
2018-Feb-14 14:31N 41°20' E 002°09'0 0.0
2018-Feb-14 14:13N 41°20' E 002°09'0 0.0
2018-Feb-14 13:55N 41°20' E 002°09'0 0.0
2018-Feb-14 13:28N 41°20' E 002°09'0 0.0
2018-Feb-14 11:31N 41°20' E 002°09'0 0.0
2018-Feb-14 11:19N 41°20' E 002°09'0 0.0
2018-Feb-14 10:43N 41°20' E 002°09'0 0.0
2018-Feb-14 10:25N 41°20' E 002°09'0 0.0
2018-Feb-14 09:07N 41°20' E 002°09'0 0.0
2018-Feb-14 09:00N 41°20' E 002°09'0 0.0
2018-Feb-14 08:30N 41°20' E 002°09'0 0.0
2018-Feb-14 08:00N 41°20' E 002°09'1 1.9
2018-Feb-14 07:30N 41°19' E 002°10'510.6
2018-Feb-14 07:00N 41°14' E 002°11'713.3
2018-Feb-14 06:30N 41°08' E 002°07'713.1
2018-Feb-14 05:59N 41°02' E 002°03'22712.5
2018-Feb-13 11:55N 37°45' W 000°21'513.5
2018-Feb-13 11:30N 37°40' W 000°25'713.6
2018-Feb-13 11:00N 37°34' W 000°30'913.0
2018-Feb-13 10:17N 37°29' W 000°40'313.0
2018-Feb-13 10:01N 37°26' W 000°43'612.8
2018-Feb-13 09:31N 37°22' W 000°48'712.9
2018-Feb-13 08:57N 37°17' W 000°55'  

Dump ship's entire track history